• Join FlightAware (Why Join?)
  • Login
  • US Flag 
06:23AM EST


 

Airport Tracker/Info


-or-


 

Live Flight TrackerFlight Track Log ✈ N997ME ✈ 14-May-2013 ✈ MMLT / LTO - KCRQ

Flight Track Log - Related Links

Times and Time Zones

All times are in EDT time to prevent confusion due to time zone crossing. See the N997ME flight status page for this flight to view local times or setup timezone preferences in your user account.

Time Position Orientation Groundspeed Altitude Reporting Facility
EDT Latitude Longitude Course Direction KTS MPH feet Rate Location/Type
10:45PM 32.1671 -116.4158 326° Northwest  Level Estimated
10:45PM 32.0333 -116.6667 323° Northwest 218 251 16,000  Level Southern California TRACON
10:46PM 32.2137 -116.4572 323° Northwest  Level Estimated
10:46PM 32.1000 -116.6667 360° North 225 259 15,900  Level Southern California TRACON
10:47PM 32.2603 -116.4986 323° Northwest  Level Estimated
10:47PM 32.1667 -116.6667 360° North 232 267 15,500  Level Southern California TRACON
10:48PM 32.3069 -116.5400 323° Northwest  Level Estimated
10:48PM 32.2333 -116.6667 360° North 246 283 14,500  Level Southern California TRACON
10:49PM 32.3535 -116.5815 323° Northwest  Level Estimated
10:49PM 32.3000 -116.6833 348° North 257 296 13,400  Level Southern California TRACON
10:49PM 32.3208 -116.6814 North 259 298 12,900 -1,184 Descending Los Angeles Center
10:50PM 32.4000 -116.6230 323° Northwest  Level Estimated
10:50PM 32.3828 -116.6861 356° North 273 314 11,900  Level Los Angeles Center
10:51PM 32.4792 -116.6919 357° North 284 327 10,400 -919 Descending Los Angeles Center
10:52PM 32.5583 -116.6928 359° North 286 329 10,000 -341 Descending Los Angeles Center
10:53PM 32.6194 -116.7292 333° Northwest 257 296 9,700 -439 Descending Los Angeles Center
10:54PM 32.6819 -116.7664 333° Northwest 249 287 9,100 -780 Descending Los Angeles Center
10:55PM 32.7442 -116.8072 331° Northwest 253 291 8,100 -537 Descending Los Angeles Center
10:56PM 32.8031 -116.8475 330° Northwest 247 284 8,000  Descending Los Angeles Center
10:57PM 32.8569 -116.8839 330° Northwest 230 265 8,100 -202 Climbing Los Angeles Center
10:58PM 32.8833 -116.9000 333° Northwest 223 257 7,700 -894 Descending Southern California TRACON
10:59PM 32.9500 -116.9500 328° Northwest 225 259 6,700 -762 Descending Southern California TRACON
11:00PM 33.0000 -116.9833 331° Northwest 201 231 6,100 -600 Descending Southern California TRACON
11:01PM 33.0500 -117.0167 331° Northwest 197 227 5,500 -550 Descending Southern California TRACON
11:02PM 33.1000 -117.0333 344° North 207 238 5,000 -200 Descending Southern California TRACON
11:03PM 33.1500 -117.0167 16° North 191 220 5,100 -200 Climbing Southern California TRACON
11:04PM 33.1833 -117.0500 320° Northwest 167 192 4,600 -750 Descending Southern California TRACON
11:05PM 33.1500 -117.1000 231° Southwest 177 204 3,600 -1,100 Descending Southern California TRACON
11:06PM 33.1500 -117.1500 270° West 148 170 2,400 -714 Descending Southern California TRACON
11:07PM 33.1500 -117.2000 270° West 125 144 2,100 -650 Descending Southern California TRACON
11:08PM 33.1333 -117.2333 239° Southwest 116 133 1,100 -842 Descending Southern California TRACON
11:09PM 33.1333 -117.2667 270° West 117 135 500 -600 Descending Southern California TRACON